createdAt,value
2022-08-17T15:45:45.100Z,1.77
2022-08-17T15:49:05.635Z,1.85
2022-08-17T15:52:30.158Z,2.00
2022-08-17T15:55:33.959Z,1.95
2022-08-17T15:58:46.803Z,1.87
2022-08-17T16:03:13.662Z,1.87
2022-08-17T16:05:27.205Z,1.80
2022-08-17T16:08:31.452Z,1.73
2022-08-17T16:11:37.354Z,1.60
2022-08-17T16:14:43.280Z,2.00
2022-08-17T16:17:48.491Z,2.20
2022-08-17T16:20:57.832Z,2.30
2022-08-17T16:24:13.403Z,1.87
2022-08-17T16:27:20.959Z,1.90
2022-08-17T16:30:27.421Z,2.92
2022-08-17T16:33:33.591Z,1.90
2022-08-17T16:36:37.615Z,1.70
2022-08-17T16:39:43.781Z,2.33
2022-08-17T16:42:49.372Z,1.90
2022-08-17T16:45:55.447Z,1.83
2022-08-17T16:49:27.617Z,1.70
2022-08-17T16:53:19.414Z,1.90
2022-08-17T16:56:52.087Z,1.83
2022-08-17T16:59:54.819Z,1.90
2022-08-17T17:03:19.881Z,1.77
2022-08-17T17:06:38.236Z,2.30
2022-08-17T17:09:47.709Z,1.98
2022-08-17T17:13:41.224Z,1.98
2022-08-17T17:17:06.261Z,1.70
2022-08-17T17:20:22.461Z,2.00
2022-08-17T17:23:57.384Z,2.15
2022-08-17T17:27:08.899Z,2.08
2022-08-17T17:30:26.087Z,2.37
2022-08-17T17:33:56.410Z,1.90
2022-08-17T17:37:32.808Z,2.40
2022-08-17T17:41:13.620Z,2.12
2022-08-17T17:44:24.488Z,2.40
2022-08-17T17:47:50.279Z,2.53
2022-08-17T17:51:03.247Z,2.40
2022-08-17T17:54:19.972Z,2.30
2022-08-17T17:57:38.447Z,2.72
2022-08-17T18:00:59.151Z,3.10
2022-08-17T18:04:31.504Z,3.65
2022-08-17T18:08:33.923Z,3.12
2022-08-17T18:11:51.466Z,2.60
2022-08-17T18:15:11.244Z,2.65
2022-08-17T18:18:17.658Z,2.80
2022-08-17T18:21:23.901Z,2.30
2022-08-17T18:24:36.056Z,2.67
2022-08-17T18:28:05.389Z,2.65
2022-08-17T18:32:17.324Z,2.42
2022-08-17T18:35:30.502Z,2.70
2022-08-17T18:38:38.698Z,7.05
2022-08-17T18:41:48.985Z,8.07
2022-08-17T18:44:55.322Z,5.60
2022-08-17T18:48:03.624Z,4.12
2022-08-17T18:51:41.461Z,4.87
2022-08-17T18:55:06.140Z,3.60
2022-08-17T18:58:23.699Z,3.03
2022-08-17T19:02:21.622Z,3.08
2022-08-17T19:05:42.991Z,2.85
2022-08-17T19:08:46.289Z,2.83
2022-08-17T19:11:50.610Z,2.85
2022-08-17T19:14:56.373Z,2.75
2022-08-17T19:18:26.887Z,2.92
2022-08-17T19:21:45.112Z,2.97
2022-08-17T19:24:55.778Z,2.40
2022-08-17T19:28:32.681Z,2.33
2022-08-17T19:31:36.339Z,2.45
2022-08-17T19:34:44.442Z,2.45
2022-08-17T19:38:19.381Z,3.55
2022-08-17T19:41:30.365Z,3.05
2022-08-17T19:45:00.634Z,2.78
2022-08-17T19:48:18.776Z,2.40
2022-08-17T19:51:50.629Z,2.28
2022-08-17T19:55:07.315Z,3.40
2022-08-17T19:58:34.664Z,2.87
2022-08-17T20:01:47.997Z,2.42
2022-08-17T20:04:58.732Z,2.65
2022-08-17T20:11:54.797Z,3.08
2022-08-17T20:15:04.298Z,2.60
2022-08-17T20:18:19.016Z,2.85
2022-08-17T20:21:30.388Z,2.67
2022-08-17T20:24:43.339Z,3.15
2022-08-17T20:27:55.575Z,2.78
2022-08-17T20:31:47.556Z,3.00
2022-08-17T20:35:03.856Z,2.72
2022-08-17T20:38:08.165Z,3.12
2022-08-17T20:41:31.000Z,3.53
2022-08-17T20:44:35.006Z,3.33
2022-08-17T20:48:15.226Z,6.57
2022-08-17T20:51:27.606Z,6.47
2022-08-17T20:54:50.702Z,6.20
2022-08-17T20:57:56.741Z,6.60
2022-08-17T21:01:00.220Z,6.53
2022-08-17T21:04:08.348Z,5.07
2022-08-17T21:07:51.264Z,5.30
2022-08-17T21:10:57.418Z,4.35
2022-08-17T21:14:24.517Z,4.78
2022-08-17T21:17:40.067Z,4.15
2022-08-17T21:21:05.697Z,4.70
2022-08-17T21:24:42.684Z,4.53
2022-08-17T21:28:07.299Z,4.20
2022-08-17T21:31:34.798Z,3.65
2022-08-17T21:34:46.645Z,3.55
2022-08-17T21:37:54.230Z,3.95
2022-08-17T21:40:57.054Z,3.78
2022-08-17T21:44:32.346Z,3.87
2022-08-17T21:47:35.351Z,3.67
2022-08-17T21:50:44.132Z,3.62
2022-08-17T21:53:50.308Z,3.70
2022-08-17T21:56:53.944Z,3.15
2022-08-17T22:00:00.743Z,3.65
2022-08-17T22:03:21.044Z,3.78
2022-08-17T22:06:30.544Z,3.45
2022-08-17T22:09:41.024Z,3.03
2022-08-17T22:13:02.147Z,3.75
2022-08-17T22:16:04.500Z,4.87
2022-08-17T22:19:24.081Z,3.83
2022-08-17T22:23:20.124Z,4.90
2022-08-17T22:26:46.970Z,6.00
2022-08-17T22:30:00.655Z,4.75
2022-08-17T22:33:29.225Z,4.32
2022-08-17T22:36:36.317Z,4.53
2022-08-17T22:39:40.511Z,4.28
2022-08-17T22:42:48.619Z,4.37
2022-08-17T22:46:00.009Z,3.97
2022-08-17T22:49:03.321Z,4.05
2022-08-17T22:52:16.559Z,3.75
2022-08-17T22:55:38.000Z,3.60
2022-08-17T22:59:12.835Z,3.22
2022-08-17T23:02:25.240Z,2.85
2022-08-17T23:05:28.341Z,2.87
2022-08-17T23:08:33.933Z,3.03
2022-08-17T23:11:49.348Z,3.50
2022-08-17T23:15:00.817Z,3.00
2022-08-17T23:18:05.177Z,4.10
2022-08-17T23:21:10.015Z,2.87
2022-08-17T23:24:23.787Z,3.40
2022-08-17T23:27:29.442Z,3.00
2022-08-17T23:30:37.138Z,2.47
2022-08-17T23:33:40.977Z,2.50
2022-08-17T23:36:50.204Z,3.15
2022-08-17T23:39:57.397Z,2.90
2022-08-17T23:43:00.599Z,3.03
2022-08-17T23:46:07.477Z,2.45
2022-08-17T23:49:11.237Z,2.80
2022-08-17T23:52:16.401Z,2.47
2022-08-17T23:55:21.857Z,3.07
2022-08-17T23:58:24.411Z,2.60
